Time;durP1;ratioP1;P1;durP2;ratioP2;P2;SDS_P1;SDS_P2;PMS_P1;PMS_P2;Temp;Humidity;BMP_temperature;BMP_pressure;BME280_temperature;BME280_humidity;BME280_pressure;Samples;Min_cycle;Max_cycle;Signal;HPM_P1;HPM_P2
2023/03/20 00:01:29;;;;;;;19.25;9.77;;;;;;;7.79;100.00;101991.25;6247274;23;20079;-74
2023/03/20 00:03:56;;;;;;;16.83;9.63;;;;;;;7.76;100.00;101998.16;6246648;23;20023;-75
2023/03/20 00:06:24;;;;;;;17.55;8.90;;;;;;;7.71;100.00;101984.63;6246838;23;20008;-76
2023/03/20 00:08:52;;;;;;;18.27;9.45;;;;;;;7.49;100.00;101955.34;6246628;23;20004;-76
2023/03/20 00:11:29;;;;;;;17.02;8.75;;;;;;;7.71;100.00;101987.19;6246554;23;20007;-74
2023/03/20 00:13:58;;;;;;;17.58;8.93;;;;;;;7.58;100.00;101965.34;6247002;23;20075;-76
2023/03/20 00:16:28;;;;;;;19.90;9.98;;;;;;;7.69;100.00;101988.13;6247106;23;20012;-75
2023/03/20 00:18:55;;;;;;;17.60;9.20;;;;;;;7.62;100.00;101972.06;6246586;23;20044;-73
2023/03/20 00:21:20;;;;;;;16.98;8.88;;;;;;;7.67;100.00;101985.63;6247257;23;20023;-75
2023/03/20 00:23:46;;;;;;;20.60;9.10;;;;;;;7.66;100.00;101983.06;6246691;23;20008;-75
2023/03/20 00:26:14;;;;;;;18.25;8.48;;;;;;;7.53;100.00;101959.50;6246534;23;20144;-76
2023/03/20 00:28:43;;;;;;;19.13;8.88;;;;;;;7.63;100.00;101976.31;6246484;23;20004;-76
2023/03/20 00:31:25;;;;;;;20.20;9.65;;;;;;;7.59;100.00;101967.03;6246784;23;20422;-75
2023/03/20 00:33:55;;;;;;;18.05;9.30;;;;;;;7.51;100.00;101950.16;6246554;23;20000;-77
2023/03/20 00:36:20;;;;;;;17.92;9.52;;;;;;;7.61;100.00;101962.66;6247183;23;20087;-77
2023/03/20 00:38:46;;;;;;;20.02;9.13;;;;;;;7.37;100.00;101918.00;6219758;23;20420;-75
2023/03/20 00:41:19;;;;;;;22.35;10.85;;;;;;;7.55;100.00;101944.84;6246713;23;20004;-76
2023/03/20 00:43:45;;;;;;;19.13;8.98;;;;;;;7.60;100.00;101950.72;6246696;23;20042;-76
2023/03/20 00:46:13;;;;;;;23.30;9.55;;;;;;;7.55;100.00;101937.16;6246518;23;20058;-75
2023/03/20 00:48:41;;;;;;;20.30;9.75;;;;;;;7.50;100.00;101933.91;6246094;23;20004;-75
2023/03/20 00:51:06;;;;;;;18.05;9.73;;;;;;;7.28;100.00;101896.94;6246686;23;20024;-75
2023/03/20 00:53:32;;;;;;;16.63;9.75;;;;;;;7.33;100.00;101926.72;6219704;23;20011;-74
2023/03/20 00:55:58;;;;;;;21.13;10.02;;;;;;;7.25;100.00;101928.69;6246569;23;20004;-74
2023/03/20 00:58:23;;;;;;;19.63;10.02;;;;;;;7.22;100.00;101938.22;6246470;23;20085;-77
2023/03/20 01:00:49;;;;;;;17.95;9.65;;;;;;;7.12;100.00;101953.94;6246300;23;20007;-76
2023/03/20 01:03:17;;;;;;;17.48;9.85;;;;;;;7.11;100.00;101975.38;6246213;23;20081;-75
2023/03/20 01:05:44;;;;;;;21.08;10.68;;;;;;;7.02;100.00;101980.78;6246485;23;20099;-75
2023/03/20 01:08:20;;;;;;;18.35;8.93;;;;;;;6.96;100.00;102001.50;6246510;23;20043;-75
2023/03/20 01:10:48;;;;;;;23.73;9.93;;;;;;;6.77;100.00;101984.94;6246313;23;20004;-75
2023/03/20 01:13:28;;;;;;;20.35;9.88;;;;;;;6.84;100.00;101999.28;6218414;23;20015;-76
2023/03/20 01:15:55;;;;;;;22.38;10.68;;;;;;;6.90;100.00;102001.69;6246251;23;19996;-75
2023/03/20 01:18:22;;;;;;;21.80;11.00;;;;;;;6.87;100.00;101976.91;6246286;23;20011;-75
2023/03/20 01:20:49;;;;;;;25.92;12.27;;;;;;;6.78;100.00;101958.38;6219118;23;20004;-76
2023/03/20 01:23:15;;;;;;;22.58;10.27;;;;;;;6.64;100.00;101955.38;6246794;23;20004;-75
2023/03/20 01:25:41;;;;;;;20.55;11.32;;;;;;;6.65;100.00;101975.03;6246348;23;20421;-76
2023/03/20 01:28:22;;;;;;;18.60;10.27;;;;;;;6.57;100.00;101960.66;6246455;23;20004;-75
2023/03/20 01:30:47;;;;;;;22.38;10.93;;;;;;;6.44;100.00;101961.91;6246300;23;20000;-77
2023/03/20 01:33:18;;;;;;;25.85;9.98;;;;;;;6.50;100.00;101997.69;6246625;23;20087;-76
2023/03/20 01:35:45;;;;;;;22.15;10.93;;;;;;;6.43;100.00;102001.28;6246603;23;20004;-76
2023/03/20 01:38:14;;;;;;;22.83;10.65;;;;;;;6.32;100.00;101990.47;6246126;23;20000;-77
2023/03/20 01:40:47;;;;;;;24.80;11.13;;;;;;;6.30;100.00;101990.50;6219052;23;20333;-75
2023/03/20 01:43:17;;;;;;;22.67;12.00;;;;;;;6.06;100.00;101959.53;6245828;23;20011;-76
2023/03/20 01:46:18;;;;;;;23.70;11.82;;;;;;;6.18;100.00;101989.97;6245842;23;20011;-75
2023/03/20 01:48:49;;;;;;;27.60;13.48;;;;;;;6.17;100.00;101983.16;6246074;23;20031;-77
2023/03/20 01:51:16;;;;;;;30.55;13.85;;;;;;;6.12;100.00;101977.31;6246212;23;20030;-75
2023/03/20 01:53:44;;;;;;;23.08;14.70;;;;;;;6.12;100.00;101970.47;6245923;23;20075;-77
2023/03/20 01:56:12;;;;;;;22.73;12.27;;;;;;;6.07;100.00;101979.16;6245557;23;20000;-76
2023/03/20 01:58:43;;;;;;;25.73;12.88;;;;;;;6.06;100.00;101988.56;6245835;23;20000;-75
2023/03/20 02:01:10;;;;;;;;;;;;;;;6.08;100.00;101980.84;6246364;23;20460;-74
2023/03/20 02:03:36;;;;;;;25.83;14.32;;;;;;;6.02;100.00;101982.69;6245681;23;19939;-75
2023/03/20 02:06:03;;;;;;;25.45;13.77;;;;;;;5.75;100.00;101934.66;6246088;23;20053;-76
2023/03/20 02:08:30;;;;;;;26.13;12.77;;;;;;;5.95;100.00;101972.63;6217560;23;20303;-76
2023/03/20 02:11:00;;;;;;;25.98;12.68;;;;;;;5.78;100.00;101946.53;6245805;23;20047;-76
2023/03/20 02:13:28;;;;;;;26.05;12.27;;;;;;;5.78;100.00;101962.75;6245903;23;20062;-76
2023/03/20 02:16:12;;;;;;;24.27;12.30;;;;;;;5.82;100.00;101990.00;6246032;23;20011;-75
2023/03/20 02:18:40;;;;;;;24.70;13.18;;;;;;;5.77;100.00;101991.81;6219000;23;20000;-75
2023/03/20 02:21:36;;;;;;;24.90;12.95;;;;;;;5.72;100.00;101991.13;6245964;23;20004;-75
2023/03/20 02:24:14;;;;;;;27.17;13.80;;;;;;;5.68;100.00;101987.75;6245980;23;20067;-77
2023/03/20 02:27:16;;;;;;;26.27;13.50;;;;;;;5.66;100.00;102004.91;6245781;23;20008;-77
2023/03/20 02:30:03;;;;;;;26.55;13.80;;;;;;;5.64;100.00;102005.81;6245899;23;20039;-76
2023/03/20 02:33:08;;;;;;;25.92;15.30;;;;;;;5.64;100.00;101998.13;6245744;23;20062;-76
2023/03/20 02:36:07;;;;;;;25.75;14.63;;;;;;;5.65;100.00;101999.81;6069668;23;20038;-75
2023/03/20 02:38:57;;;;;;;27.33;13.85;;;;;;;5.66;100.00;101986.13;6094345;23;20014;-76
2023/03/20 02:41:38;;;;;;;28.25;15.05;;;;;;;5.61;100.00;101981.13;6093984;23;20463;-75
2023/03/20 02:44:15;;;;;;;26.25;14.82;;;;;;;5.63;100.00;101981.91;6094311;23;20010;-74
2023/03/20 02:46:50;;;;;;;30.42;15.65;;;;;;;5.72;100.00;101980.88;6093983;23;20014;-76
2023/03/20 02:49:26;;;;;;;26.85;15.27;;;;;;;5.73;100.00;101972.28;6094022;23;20377;-75
2023/03/20 02:52:11;;;;;;;26.65;13.73;;;;;;;5.73;100.00;101973.13;6094091;23;20085;-75
2023/03/20 02:55:13;;;;;;;28.17;14.82;;;;;;;5.73;100.00;101974.84;6094112;23;20130;-75
2023/03/20 02:57:50;;;;;;;26.35;14.60;;;;;;;5.67;100.00;101959.63;6093896;23;20371;-77
2023/03/20 03:00:18;;;;;;;24.70;14.00;;;;;;;5.67;100.00;101967.31;6094192;23;20372;-77
2023/03/20 03:02:51;;;;;;;27.88;15.23;;;;;;;5.66;100.00;101960.50;6093626;23;20010;-75
2023/03/20 03:05:31;;;;;;;33.28;16.13;;;;;;;5.47;100.00;101942.16;6093947;23;20021;-75
2023/03/20 03:07:59;;;;;;;29.90;15.60;;;;;;;5.50;100.00;101949.75;6093918;23;20338;-77
2023/03/20 03:10:53;;;;;;;27.23;14.55;;;;;;;5.48;100.00;101947.25;6093832;23;20019;-75
2023/03/20 03:13:24;;;;;;;28.48;14.48;;;;;;;5.54;100.00;101946.28;6205549;23;20008;-77
2023/03/20 03:15:54;;;;;;;32.30;15.48;;;;;;;5.40;100.00;101920.97;6214961;23;20000;-75
2023/03/20 03:18:24;;;;;;;26.08;14.57;;;;;;;5.50;100.00;101928.44;6215255;23;20007;-75
2023/03/20 03:20:55;;;;;;;32.50;15.70;;;;;;;5.58;100.00;101934.22;6215265;23;20311;-75
2023/03/20 03:23:41;;;;;;;25.58;14.80;;;;;;;5.59;100.00;101930.78;6187564;23;20005;-75
2023/03/20 03:26:14;;;;;;;25.15;14.52;;;;;;;5.57;100.00;101928.25;6214811;23;20012;-75
2023/03/20 03:28:43;;;;;;;26.00;15.07;;;;;;;5.22;100.00;101870.22;6215136;23;20367;-76
2023/03/20 03:31:12;;;;;;;26.77;14.88;;;;;;;5.42;100.00;101911.53;6215049;23;20076;-75
2023/03/20 03:33:46;;;;;;;25.95;14.13;;;;;;;5.47;100.00;101916.53;6214835;23;20005;-76
2023/03/20 03:36:34;;;;;;;26.13;14.38;;;;;;;4.97;100.00;101833.25;6215120;23;20022;-76
2023/03/20 03:39:08;;;;;;;24.98;14.82;;;;;;;5.55;100.00;101927.44;6214853;23;20004;-77
2023/03/20 03:41:40;;;;;;;27.50;13.88;;;;;;;5.51;100.00;101920.72;6215109;23;20323;-76
2023/03/20 03:44:26;;;;;;;29.33;15.38;;;;;;;5.51;100.00;101923.28;6214950;23;20419;-74
2023/03/20 03:47:17;;;;;;;23.85;13.63;;;;;;;5.51;100.00;101928.41;6214822;23;20019;-75
2023/03/20 03:49:49;;;;;;;26.25;13.45;;;;;;;5.47;100.00;101917.38;6215101;23;20307;-76
2023/03/20 03:52:21;;;;;;;26.35;14.38;;;;;;;5.45;100.00;101921.72;6214748;23;20001;-75
2023/03/20 03:54:54;;;;;;;24.77;13.45;;;;;;;5.43;100.00;101914.94;6215066;23;20384;-75
2023/03/20 03:57:26;;;;;;;24.67;13.75;;;;;;;5.28;100.00;101910.19;6214843;23;20334;-75
2023/03/20 03:59:54;;;;;;;24.73;14.77;;;;;;;5.31;100.00;101916.09;6214744;23;20453;-75
2023/03/20 04:02:21;;;;;;;25.75;14.13;;;;;;;5.35;100.00;101920.25;6214819;23;20007;-74
2023/03/20 04:04:50;;;;;;;24.92;14.20;;;;;;;5.21;100.00;101901.81;6243576;23;20008;-75
2023/03/20 04:07:15;;;;;;;26.33;14.02;;;;;;;5.30;100.00;101911.81;6245002;23;20000;-76
2023/03/20 04:09:41;;;;;;;26.98;14.93;;;;;;;5.17;100.00;101887.38;6217633;23;20011;-77
2023/03/20 04:12:28;;;;;;;24.45;14.13;;;;;;;5.28;100.00;101911.03;6245069;23;20024;-75
2023/03/20 04:14:54;;;;;;;27.27;14.52;;;;;;;5.25;100.00;101913.66;6244959;23;20054;-77
2023/03/20 04:17:19;;;;;;;25.75;15.02;;;;;;;5.22;100.00;101903.50;6245472;23;20000;-73
2023/03/20 04:19:44;;;;;;;26.02;14.52;;;;;;;4.91;100.00;101849.59;6245380;23;20015;-75
2023/03/20 04:22:10;;;;;;;25.42;13.40;;;;;;;5.12;100.00;101904.59;6246003;23;20406;-75
2023/03/20 04:24:35;;;;;;;23.67;13.00;;;;;;;5.12;100.00;101907.16;6246931;23;20311;-76
2023/03/20 04:27:00;;;;;;;26.05;15.02;;;;;;;5.11;100.00;101910.56;6247233;23;20141;-76
2023/03/20 04:29:26;;;;;;;26.05;14.80;;;;;;;5.02;100.00;101903.13;6246670;23;20015;-74
2023/03/20 04:31:51;;;;;;;25.73;13.75;;;;;;;5.03;100.00;101900.53;6246588;23;20484;-75
2023/03/20 04:34:17;;;;;;;23.80;13.60;;;;;;;4.96;100.00;101891.28;6246805;23;20004;-74
2023/03/20 04:36:43;;;;;;;26.30;14.43;;;;;;;4.94;100.00;101899.88;6247110;23;20008;-74
2023/03/20 04:39:08;;;;;;;23.38;14.15;;;;;;;4.97;100.00;101904.94;6246999;23;20453;-74
2023/03/20 04:41:36;;;;;;;29.60;15.35;;;;;;;4.97;100.00;101892.13;6219505;23;20008;-76
2023/03/20 04:44:02;;;;;;;25.65;14.48;;;;;;;4.88;100.00;101875.25;6247138;23;20326;-75
2023/03/20 04:46:27;;;;;;;25.40;13.50;;;;;;;4.99;100.00;101883.53;6219487;23;20015;-75
2023/03/20 04:48:52;;;;;;;25.38;14.77;;;;;;;5.02;100.00;101877.53;6246912;23;20004;-75
2023/03/20 04:51:18;;;;;;;24.45;14.23;;;;;;;5.03;100.00;101877.47;6246496;23;20000;-75
2023/03/20 04:53:43;;;;;;;26.13;15.25;;;;;;;4.97;100.00;101861.41;6219068;23;20016;-75
2023/03/20 04:56:08;;;;;;;27.05;14.98;;;;;;;5.04;100.00;101870.63;6246822;23;20099;-76
2023/03/20 04:58:37;;;;;;;26.90;14.77;;;;;;;5.03;100.00;101864.69;6246366;23;20058;-75
2023/03/20 05:01:02;;;;;;;25.35;14.18;;;;;;;5.11;100.00;101888.38;6246625;23;20426;-77
2023/03/20 05:03:27;;;;;;;24.80;13.75;;;;;;;5.12;100.00;101895.19;6246361;23;20008;-74
2023/03/20 05:05:52;;;;;;;27.15;14.90;;;;;;;5.11;100.00;101900.31;6246375;23;20315;-75
2023/03/20 05:08:18;;;;;;;29.58;16.50;;;;;;;5.12;100.00;101905.44;6246207;23;20433;-76
2023/03/20 05:10:43;;;;;;;27.50;15.43;;;;;;;4.90;100.00;101851.31;6246277;23;20027;-74
2023/03/20 05:13:08;;;;;;;26.58;14.95;;;;;;;5.11;100.00;101880.72;6246344;23;20046;-75
2023/03/20 05:15:34;;;;;;;25.55;15.20;;;;;;;5.16;100.00;101875.47;6246369;23;19996;-74
2023/03/20 05:17:59;;;;;;;24.42;13.98;;;;;;;5.18;100.00;101874.53;6218241;23;20004;-74
2023/03/20 05:20:24;;;;;;;27.58;14.35;;;;;;;5.17;100.00;101872.88;6246474;23;20046;-76
2023/03/20 05:22:50;;;;;;;28.10;15.32;;;;;;;5.20;100.00;101877.06;6246685;23;20028;-74
2023/03/20 05:25:16;;;;;;;27.63;14.93;;;;;;;5.18;100.00;101877.09;6246049;23;20007;-76
2023/03/20 05:27:43;;;;;;;25.27;14.85;;;;;;;5.08;100.00;101864.56;6246096;23;20326;-74
2023/03/20 05:30:09;;;;;;;26.85;14.85;;;;;;;5.19;100.00;101875.38;6245819;23;20042;-74
2023/03/20 05:32:35;;;;;;;29.23;15.93;;;;;;;5.22;100.00;101875.34;6246519;23;20535;-75
2023/03/20 05:35:01;;;;;;;26.40;14.75;;;;;;;5.18;100.00;101874.53;6245791;23;20325;-75
2023/03/20 05:37:26;;;;;;;25.92;14.63;;;;;;;5.23;100.00;101874.44;6246321;23;20043;-75
2023/03/20 05:39:51;;;;;;;26.13;15.07;;;;;;;4.65;100.00;101770.03;6253780;22;20004;-76
2023/03/20 05:42:27;;;;;;;24.33;13.38;;;;;;;4.13;100.00;101694.50;6307897;22;20011;-75
2023/03/20 05:44:53;;;;;;;24.63;13.80;;;;;;;4.84;100.00;101809.69;6307648;22;20039;-74
2023/03/20 05:47:21;;;;;;;25.65;13.80;;;;;;;5.26;100.00;101883.78;6280443;22;19999;-74
2023/03/20 05:49:46;;;;;;;24.17;13.77;;;;;;;5.29;100.00;101886.25;6307392;22;20003;-74
2023/03/20 05:52:11;;;;;;;25.05;14.20;;;;;;;5.17;100.00;101872.03;6307572;22;20006;-75
2023/03/20 05:54:37;;;;;;;28.48;12.80;;;;;;;5.30;100.00;101888.75;6307458;22;19999;-76
2023/03/20 05:57:02;;;;;;;21.95;12.82;;;;;;;5.32;100.00;101897.28;6307625;22;20003;-74
2023/03/20 05:59:27;;;;;;;26.48;13.38;;;;;;;5.19;100.00;101871.09;6307443;22;20010;-74
2023/03/20 06:01:53;;;;;;;24.27;13.50;;;;;;;5.30;100.00;101899.00;6306997;22;20003;-76
2023/03/20 06:04:18;;;;;;;23.35;13.45;;;;;;;5.34;100.00;101898.06;6307599;22;20018;-75
2023/03/20 06:06:43;;;;;;;22.65;13.20;;;;;;;5.02;100.00;101837.41;6279534;22;20015;-75
2023/03/20 06:09:09;;;;;;;21.85;13.27;;;;;;;5.44;100.00;101916.63;6306961;22;20423;-76
2023/03/20 06:11:34;;;;;;;23.45;11.82;;;;;;;5.45;100.00;101908.91;6307288;22;19999;-75
2023/03/20 06:14:00;;;;;;;21.42;12.18;;;;;;;5.39;100.00;101891.09;6307423;22;20007;-75
2023/03/20 06:16:26;;;;;;;20.23;11.85;;;;;;;5.33;100.00;101881.03;6306987;22;20014;-75
2023/03/20 06:18:51;;;;;;;22.45;11.77;;;;;;;5.58;100.00;101917.13;6306917;22;20003;-76
2023/03/20 06:21:17;;;;;;;22.52;11.18;;;;;;;5.61;100.00;101913.66;6307397;22;20009;-76
2023/03/20 06:23:42;;;;;;;22.30;10.98;;;;;;;5.65;100.00;101917.81;6306956;22;20372;-76
2023/03/20 06:26:07;;;;;;;23.70;11.65;;;;;;;5.60;100.00;101914.50;6307565;22;20082;-74
2023/03/20 06:28:36;;;;;;;23.70;12.07;;;;;;;5.74;100.00;101925.28;6307760;22;20000;-71
2023/03/20 06:31:01;;;;;;;26.48;11.88;;;;;;;5.81;100.00;101928.53;6307252;22;20006;-74
2023/03/20 06:33:27;;;;;;;21.30;11.57;;;;;;;5.65;100.00;101899.88;6307296;22;20015;-74
2023/03/20 06:35:53;;;;;;;19.33;11.23;;;;;;;5.81;100.00;101910.59;6307542;22;20360;-75
2023/03/20 06:38:19;;;;;;;22.52;10.93;;;;;;;5.98;100.00;101939.22;6307230;22;20003;-75
2023/03/20 06:40:44;;;;;;;21.13;10.60;;;;;;;6.01;100.00;101928.88;6303414;22;20500;-77
2023/03/20 06:43:11;;;;;;;17.70;10.18;;;;;;;6.11;100.00;101937.19;6307410;22;20090;-74
2023/03/20 06:45:37;;;;;;;20.40;10.25;;;;;;;6.11;100.00;101935.47;6303836;22;20007;-74
2023/03/20 06:48:05;;;;;;;20.85;10.80;;;;;;;6.04;100.00;101926.25;6245346;23;20062;-73
2023/03/20 06:50:31;;;;;;;22.17;11.35;;;;;;;6.15;100.00;101926.78;6246049;23;20007;-76
2023/03/20 06:52:56;;;;;;;23.77;11.23;;;;;;;6.32;100.00;101944.28;6246024;23;20008;-75
2023/03/20 06:55:22;;;;;;;19.90;10.73;;;;;;;6.39;100.00;101948.38;6218405;23;20421;-78
2023/03/20 06:57:47;;;;;;;17.90;10.55;;;;;;;6.03;100.00;101894.63;6245638;23;20008;-77
2023/03/20 07:00:13;;;;;;;21.98;10.93;;;;;;;6.37;100.00;101950.13;6245686;23;20069;-74
2023/03/20 07:02:38;;;;;;;20.80;10.63;;;;;;;6.46;100.00;101957.56;6245401;23;20484;-75
2023/03/20 07:05:04;;;;;;;21.35;10.63;;;;;;;6.37;100.00;101939.84;6245129;23;20004;-74
2023/03/20 07:07:29;;;;;;;21.85;10.45;;;;;;;6.51;100.00;101958.28;6245418;23;20000;-74
2023/03/20 07:09:54;;;;;;;19.10;10.20;;;;;;;6.52;100.00;101964.28;6245311;23;20449;-74
2023/03/20 07:12:21;;;;;;;20.67;10.70;;;;;;;6.35;100.00;101938.22;6245392;23;20000;-76
2023/03/20 07:14:48;;;;;;;18.38;9.82;;;;;;;6.55;100.00;101972.72;6245846;23;20075;-75
2023/03/20 07:17:14;;;;;;;21.63;10.27;;;;;;;6.57;100.00;101970.09;6245378;23;20004;-74
2023/03/20 07:19:40;;;;;;;19.15;9.40;;;;;;;6.59;100.00;101969.19;6245132;23;20123;-75
2023/03/20 07:22:07;;;;;;;17.92;9.85;;;;;;;6.51;100.00;101955.72;6245404;23;20031;-74
2023/03/20 07:24:36;;;;;;;19.25;10.18;;;;;;;6.61;100.00;101972.56;6245389;23;20000;-77
2023/03/20 07:27:01;;;;;;;21.25;9.93;;;;;;;6.58;100.00;101962.34;6245273;23;20008;-74
2023/03/20 07:29:27;;;;;;;21.77;11.10;;;;;;;6.75;100.00;101972.16;6245260;23;20015;-75
2023/03/20 07:31:52;;;;;;;23.20;10.40;;;;;;;6.85;100.00;101975.28;6245353;23;20101;-73
2023/03/20 07:34:17;;;;;;;22.38;9.40;;;;;;;6.94;100.00;101972.44;6242470;23;20008;-73
2023/03/20 07:36:43;;;;;;;18.75;9.90;;;;;;;6.99;100.00;101969.78;6216683;23;20095;-75
2023/03/20 07:39:09;;;;;;;21.40;9.82;;;;;;;7.08;100.00;101980.59;6245151;23;20000;-76
2023/03/20 07:41:35;;;;;;;19.65;10.00;;;;;;;7.06;100.00;101966.09;6218503;23;20008;-73
2023/03/20 07:44:00;;;;;;;20.30;9.25;;;;;;;7.21;100.00;101972.53;6245352;23;20011;-76
2023/03/20 07:46:25;;;;;;;15.80;9.50;;;;;;;7.23;100.00;101970.75;6244740;23;20426;-74
2023/03/20 07:48:51;;;;;;;15.35;8.52;;;;;;;7.22;99.85;101979.34;6244863;23;20449;-72
2023/03/20 07:51:19;;;;;;;19.00;8.93;;;;;;;7.16;99.76;101952.09;6245158;23;20007;-77
2023/03/20 07:53:44;;;;;;;17.27;8.40;;;;;;;7.12;98.85;101947.94;6218996;23;20059;-76
2023/03/20 07:56:10;;;;;;;18.42;8.68;;;;;;;7.29;98.94;101970.56;6218325;23;20016;-73
2023/03/20 07:58:35;;;;;;;15.68;8.40;;;;;;;7.33;98.59;101967.00;6247041;23;20015;-74
2023/03/20 08:01:02;;;;;;;21.00;10.02;;;;;;;7.27;98.43;101954.34;6247037;23;20012;-75
2023/03/20 08:03:27;;;;;;;17.15;9.13;;;;;;;7.23;97.97;101937.34;6247032;23;20009;-75
2023/03/20 08:05:53;;;;;;;18.98;9.77;;;;;;;7.23;97.38;101953.59;6246879;23;20015;-77
2023/03/20 08:08:18;;;;;;;17.50;9.38;;;;;;;7.30;97.50;101970.50;6247278;23;20031;-75
2023/03/20 08:10:43;;;;;;;23.10;8.82;;;;;;;7.24;97.42;101973.25;6247140;23;20000;-75
2023/03/20 08:13:09;;;;;;;18.88;8.30;;;;;;;7.13;98.33;101958.19;6247304;23;20418;-74
2023/03/20 08:15:34;;;;;;;20.77;9.13;;;;;;;7.18;98.10;101966.59;6246843;23;20011;-75
2023/03/20 08:18:00;;;;;;;20.23;9.07;;;;;;;7.19;98.36;101973.41;6247342;23;20123;-78
2023/03/20 08:20:26;;;;;;;15.50;8.45;;;;;;;7.19;98.31;101970.84;6220091;23;20091;-75
2023/03/20 08:22:51;;;;;;;18.65;9.07;;;;;;;7.19;98.15;101967.44;6247038;23;20337;-75
2023/03/20 08:25:16;;;;;;;19.52;8.43;;;;;;;7.21;97.82;101962.25;6246869;23;20066;-75
2023/03/20 08:27:42;;;;;;;16.48;8.27;;;;;;;7.21;96.89;101957.94;6247046;23;20054;-76
2023/03/20 08:30:08;;;;;;;17.80;8.80;;;;;;;7.27;96.75;101969.75;6246844;23;20353;-76
2023/03/20 08:32:34;;;;;;;16.70;8.38;;;;;;;7.32;96.68;101971.31;6246645;23;20011;-76
2023/03/20 08:35:00;;;;;;;20.52;9.07;;;;;;;7.38;96.77;101970.28;6247032;23;20008;-74
2023/03/20 08:37:25;;;;;;;18.42;8.30;;;;;;;7.49;96.90;101968.22;6247049;23;20003;-74
2023/03/20 08:39:50;;;;;;;17.08;8.32;;;;;;;7.51;96.24;101963.00;6246757;23;20013;-74
2023/03/20 08:42:16;;;;;;;18.20;8.23;;;;;;;7.69;95.66;101976.13;6246916;23;20035;-74
2023/03/20 08:44:41;;;;;;;19.13;9.25;;;;;;;7.79;95.06;101980.97;6218987;23;20039;-74
2023/03/20 08:47:09;;;;;;;15.27;7.40;;;;;;;7.78;93.88;101974.97;6246538;23;20046;-77
2023/03/20 08:49:34;;;;;;;14.50;7.72;;;;;;;7.80;93.55;101974.94;6247189;23;20004;-75
2023/03/20 08:51:59;;;;;;;19.58;7.53;;;;;;;7.87;94.06;101966.13;6246863;23;20038;-77
2023/03/20 08:54:25;;;;;;;16.05;7.18;;;;;;;7.95;93.27;101972.66;6246683;23;20355;-77
2023/03/20 08:56:51;;;;;;;21.02;8.50;;;;;;;8.06;92.65;101964.59;6246761;23;20016;-76
2023/03/20 08:59:18;;;;;;;17.95;7.38;;;;;;;8.07;91.93;101952.59;6246878;23;20004;-75
2023/03/20 09:01:43;;;;;;;17.77;8.07;;;;;;;8.20;91.90;101962.38;6246380;23;20074;-76
2023/03/20 09:04:10;;;;;;;14.95;6.93;;;;;;;8.17;91.60;101962.50;6247009;23;20414;-77
2023/03/20 09:06:36;;;;;;;19.77;8.45;;;;;;;8.11;91.13;101952.41;6244161;23;20012;-77
2023/03/20 09:09:02;;;;;;;15.38;7.32;;;;;;;8.15;91.10;101964.25;6246253;23;20054;-75
2023/03/20 09:11:27;;;;;;;15.30;7.25;;;;;;;8.17;91.20;101962.50;6244921;23;20499;-76
2023/03/20 09:13:53;;;;;;;15.73;7.28;;;;;;;8.17;91.40;101967.66;6246020;23;20000;-73
2023/03/20 09:16:18;;;;;;;17.52;7.35;;;;;;;8.09;91.44;101969.63;6256006;22;20080;-74
2023/03/20 09:18:44;;;;;;;15.15;7.35;;;;;;;7.87;92.07;101950.69;6276301;22;20095;-75
2023/03/20 09:21:09;;;;;;;16.13;8.18;;;;;;;7.92;93.13;101977.09;6277413;22;20057;-72
2023/03/20 09:23:35;;;;;;;16.23;7.72;;;;;;;7.81;94.51;101974.03;6277414;22;20003;-71
2023/03/20 09:26:00;;;;;;;17.17;7.80;;;;;;;7.68;95.65;101966.72;6276860;22;20014;-77
2023/03/20 09:28:26;;;;;;;14.80;8.18;;;;;;;7.76;96.87;101975.00;6277296;22;20424;-77
2023/03/20 09:30:55;;;;;;;16.80;8.40;;;;;;;7.58;98.58;101957.63;6277042;22;19999;-76
2023/03/20 09:33:20;;;;;;;19.75;8.55;;;;;;;7.59;99.08;101945.63;6276985;22;20031;-74
2023/03/20 09:35:46;;;;;;;19.48;8.27;;;;;;;7.80;99.38;101977.50;6277248;22;20316;-76
2023/03/20 09:38:12;;;;;;;16.92;8.65;;;;;;;7.81;100.00;101986.88;6277174;22;20431;-77
2023/03/20 09:40:58;;;;;;;20.65;9.02;;;;;;;7.84;100.00;101973.91;6276669;22;20004;-77
2023/03/20 09:43:45;;;;;;;16.45;8.18;;;;;;;8.03;100.00;101995.56;6276697;22;20114;-77
2023/03/20 09:46:41;;;;;;;15.93;8.30;;;;;;;8.17;100.00;101987.41;6276675;22;20003;-77
2023/03/20 09:49:39;;;;;;;23.27;8.43;;;;;;;8.23;100.00;101992.31;6275178;22;20010;-76
2023/03/20 09:52:29;;;;;;;20.88;8.80;;;;;;;8.41;100.00;101981.41;6277581;22;20010;-75
2023/03/20 09:55:09;;;;;;;17.13;8.60;;;;;;;8.51;100.00;101977.59;6276401;22;19999;-78
2023/03/20 09:57:39;;;;;;;17.40;7.63;;;;;;;8.46;98.15;101970.97;6276989;22;20413;-78
2023/03/20 10:00:12;;;;;;;16.15;8.43;;;;;;;8.41;99.12;101965.97;6277009;22;20079;-78
2023/03/20 10:02:58;;;;;;;18.85;9.32;;;;;;;8.57;98.72;101984.28;6276606;22;20053;-74
2023/03/20 10:05:37;;;;;;;15.75;8.02;;;;;;;8.40;99.05;101973.75;6276346;22;20035;-74
2023/03/20 10:08:05;;;;;;;19.02;8.43;;;;;;;8.27;99.04;101981.88;6249274;22;20007;-78
2023/03/20 10:10:45;;;;;;;16.00;7.80;;;;;;;8.01;100.00;101931.31;6276693;22;20031;-78
2023/03/20 10:13:13;;;;;;;18.70;8.40;;;;;;;8.36;100.00;101978.19;6277502;22;20071;-76
2023/03/20 10:16:07;;;;;;;17.95;8.43;;;;;;;8.56;100.00;101980.03;6276739;22;20000;-74
2023/03/20 10:18:36;;;;;;;16.50;7.97;;;;;;;8.65;98.49;101973.69;6182439;23;20092;-79
2023/03/20 10:21:14;;;;;;;15.75;8.10;;;;;;;8.84;99.42;101970.38;6182989;23;20081;-79
2023/03/20 10:23:47;;;;;;;18.50;7.85;;;;;;;9.07;98.49;101973.84;6182999;23;20081;-78
2023/03/20 10:26:17;;;;;;;14.93;8.07;;;;;;;9.12;97.47;101969.34;6182849;23;20041;-79
2023/03/20 10:28:56;;;;;;;16.35;8.23;;;;;;;9.07;96.34;101961.78;6182620;23;20067;-79
2023/03/20 10:31:46;;;;;;;13.40;7.35;;;;;;;9.08;96.84;101970.34;6182580;23;20055;-76
2023/03/20 10:34:40;;;;;;;13.95;6.90;;;;;;;9.04;95.95;101966.19;6182638;23;20083;-76
2023/03/20 10:37:25;;;;;;;15.77;8.07;;;;;;;8.86;96.00;101971.19;6182368;23;20056;-77
2023/03/20 10:40:25;;;;;;;13.95;6.20;;;;;;;8.84;96.61;101967.78;6182837;23;20005;-74
2023/03/20 10:42:54;;;;;;;13.95;6.18;;;;;;;8.85;97.79;101959.19;6182738;23;20048;-77
2023/03/20 10:45:32;;;;;;;18.42;7.72;;;;;;;8.87;97.44;101954.81;6182427;23;20009;-74
2023/03/20 10:48:06;;;;;;;14.63;6.15;;;;;;;8.65;95.85;101942.78;6182724;23;20009;-76
2023/03/20 10:50:39;;;;;;;12.98;6.68;;;;;;;8.61;96.55;101962.66;6182470;23;20008;-76
2023/03/20 10:53:06;;;;;;;11.45;6.07;;;;;;;8.67;96.71;101959.88;6182716;23;20374;-76
2023/03/20 10:55:38;;;;;;;15.00;5.65;;;;;;;8.79;97.57;101961.16;6238348;22;20019;-76
2023/03/20 10:58:17;;;;;;;12.43;5.88;;;;;;;8.90;97.39;101949.53;6276617;22;19999;-73
2023/03/20 11:00:42;;;;;;;12.65;6.03;;;;;;;8.94;95.09;101946.84;6276541;22;20003;-74
2023/03/20 11:03:21;;;;;;;15.35;6.97;;;;;;;9.13;94.84;101961.53;6249246;22;20008;-74
2023/03/20 11:06:02;;;;;;;15.48;6.50;;;;;;;8.37;94.36;101824.59;6273452;22;20008;-73
2023/03/20 11:11:08;;;;;;;17.30;7.13;;;;;;;9.02;92.91;101930.19;6273659;22;20269;-75
2023/03/20 11:13:48;;;;;;;15.90;6.38;;;;;;;8.69;93.93;101849.94;6250119;22;20103;-77
2023/03/20 11:16:35;;;;;;;16.15;6.63;;;;;;;9.41;92.03;101940.66;6215227;23;20091;-74
2023/03/20 11:19:10;;;;;;;14.65;6.68;;;;;;;9.35;92.25;101929.78;6214827;23;20008;-77
2023/03/20 11:21:45;;;;;;;15.07;6.88;;;;;;;9.35;91.83;101935.78;6215228;23;20009;-77
2023/03/20 11:24:35;;;;;;;16.48;7.03;;;;;;;9.50;92.70;101926.56;6215127;23;20058;-77
2023/03/20 11:27:06;;;;;;;17.85;7.00;;;;;;;9.60;92.22;101924.44;6215045;23;20009;-71
2023/03/20 11:29:34;;;;;;;13.07;6.47;;;;;;;9.68;90.32;101915.50;6215317;23;20157;-76
2023/03/20 11:32:06;;;;;;;15.80;6.95;;;;;;;9.72;90.71;101911.88;6214605;23;20033;-75